sensor_id;sensor_type;location;lat;lon;timestamp;P1;durP1;ratioP1;P2;durP2;ratioP2
18532;SDS011;9396;51.510;11.934;2023-03-19T00:01:24;20.93;;;13.43;;
18532;SDS011;9396;51.510;11.934;2023-03-19T00:03:51;13.70;;;10.60;;
18532;SDS011;9396;51.510;11.934;2023-03-19T00:06:19;13.47;;;9.97;;
18532;SDS011;9396;51.510;11.934;2023-03-19T00:08:46;15.87;;;10.13;;
18532;SDS011;9396;51.510;11.934;2023-03-19T00:11:13;18.73;;;12.00;;
18532;SDS011;9396;51.510;11.934;2023-03-19T00:13:40;17.97;;;11.50;;
18532;SDS011;9396;51.510;11.934;2023-03-19T00:16:08;19.33;;;12.20;;
18532;SDS011;9396;51.510;11.934;2023-03-19T00:18:35;15.93;;;11.23;;
18532;SDS011;9396;51.510;11.934;2023-03-19T00:21:02;18.13;;;11.00;;
18532;SDS011;9396;51.510;11.934;2023-03-19T00:23:29;14.43;;;11.00;;
18532;SDS011;9396;51.510;11.934;2023-03-19T00:25:55;19.03;;;10.53;;
18532;SDS011;9396;51.510;11.934;2023-03-19T00:28:22;14.23;;;10.00;;
18532;SDS011;9396;51.510;11.934;2023-03-19T00:30:49;15.00;;;10.73;;
18532;SDS011;9396;51.510;11.934;2023-03-19T00:33:17;18.87;;;11.97;;
18532;SDS011;9396;51.510;11.934;2023-03-19T00:35:44;15.67;;;10.67;;
18532;SDS011;9396;51.510;11.934;2023-03-19T00:38:11;13.50;;;10.27;;
18532;SDS011;9396;51.510;11.934;2023-03-19T00:40:38;19.53;;;10.80;;
18532;SDS011;9396;51.510;11.934;2023-03-19T00:43:05;17.47;;;10.87;;
18532;SDS011;9396;51.510;11.934;2023-03-19T00:45:31;17.93;;;11.87;;
18532;SDS011;9396;51.510;11.934;2023-03-19T00:47:58;17.63;;;11.70;;
18532;SDS011;9396;51.510;11.934;2023-03-19T00:50:26;17.60;;;11.00;;
18532;SDS011;9396;51.510;11.934;2023-03-19T00:52:53;15.77;;;10.87;;
18532;SDS011;9396;51.510;11.934;2023-03-19T00:55:21;21.87;;;12.20;;
18532;SDS011;9396;51.510;11.934;2023-03-19T00:57:48;17.40;;;10.90;;
18532;SDS011;9396;51.510;11.934;2023-03-19T01:00:15;17.57;;;10.30;;
18532;SDS011;9396;51.510;11.934;2023-03-19T01:02:42;19.97;;;11.20;;
18532;SDS011;9396;51.510;11.934;2023-03-19T01:05:08;16.20;;;11.13;;
18532;SDS011;9396;51.510;11.934;2023-03-19T01:07:36;13.80;;;10.50;;
18532;SDS011;9396;51.510;11.934;2023-03-19T01:10:03;17.27;;;10.80;;
18532;SDS011;9396;51.510;11.934;2023-03-19T01:12:31;17.00;;;11.07;;
18532;SDS011;9396;51.510;11.934;2023-03-19T01:14:58;17.23;;;11.07;;
18532;SDS011;9396;51.510;11.934;2023-03-19T01:17:25;17.83;;;11.43;;
18532;SDS011;9396;51.510;11.934;2023-03-19T01:19:51;16.63;;;10.67;;
18532;SDS011;9396;51.510;11.934;2023-03-19T01:22:18;15.10;;;10.60;;
18532;SDS011;9396;51.510;11.934;2023-03-19T01:24:46;15.20;;;10.73;;
18532;SDS011;9396;51.510;11.934;2023-03-19T01:27:13;16.93;;;10.13;;
18532;SDS011;9396;51.510;11.934;2023-03-19T01:29:40;17.90;;;10.73;;
18532;SDS011;9396;51.510;11.934;2023-03-19T01:32:06;16.47;;;9.97;;
18532;SDS011;9396;51.510;11.934;2023-03-19T01:34:33;14.43;;;9.97;;
18532;SDS011;9396;51.510;11.934;2023-03-19T01:37:00;14.20;;;9.27;;
18532;SDS011;9396;51.510;11.934;2023-03-19T01:39:27;15.87;;;8.80;;
18532;SDS011;9396;51.510;11.934;2023-03-19T01:41:55;13.97;;;8.37;;
18532;SDS011;9396;51.510;11.934;2023-03-19T01:44:27;11.50;;;7.30;;
18532;SDS011;9396;51.510;11.934;2023-03-19T01:46:55;11.43;;;7.33;;
18532;SDS011;9396;51.510;11.934;2023-03-19T01:49:24;13.47;;;7.70;;
18532;SDS011;9396;51.510;11.934;2023-03-19T01:51:53;12.40;;;6.63;;
18532;SDS011;9396;51.510;11.934;2023-03-19T01:54:21;12.50;;;7.17;;
18532;SDS011;9396;51.510;11.934;2023-03-19T01:56:51;9.10;;;6.37;;
18532;SDS011;9396;51.510;11.934;2023-03-19T01:59:24;9.33;;;6.90;;
18532;SDS011;9396;51.510;11.934;2023-03-19T02:01:55;11.57;;;7.60;;
18532;SDS011;9396;51.510;11.934;2023-03-19T02:04:23;12.40;;;7.30;;
18532;SDS011;9396;51.510;11.934;2023-03-19T02:06:52;10.37;;;7.67;;
18532;SDS011;9396;51.510;11.934;2023-03-19T02:09:20;11.83;;;8.60;;
18532;SDS011;9396;51.510;11.934;2023-03-19T02:11:46;12.03;;;8.20;;
18532;SDS011;9396;51.510;11.934;2023-03-19T02:14:13;13.30;;;8.27;;
18532;SDS011;9396;51.510;11.934;2023-03-19T02:16:41;17.80;;;8.17;;
18532;SDS011;9396;51.510;11.934;2023-03-19T02:19:08;10.20;;;7.43;;
18532;SDS011;9396;51.510;11.934;2023-03-19T02:21:40;12.53;;;8.30;;
18532;SDS011;9396;51.510;11.934;2023-03-19T02:24:07;12.47;;;8.77;;
18532;SDS011;9396;51.510;11.934;2023-03-19T02:26:42;11.23;;;7.90;;
18532;SDS011;9396;51.510;11.934;2023-03-19T02:29:11;12.43;;;7.70;;
18532;SDS011;9396;51.510;11.934;2023-03-19T02:31:37;9.63;;;8.00;;
18532;SDS011;9396;51.510;11.934;2023-03-19T02:34:05;13.70;;;8.40;;
18532;SDS011;9396;51.510;11.934;2023-03-19T02:36:53;11.93;;;8.37;;
18532;SDS011;9396;51.510;11.934;2023-03-19T02:39:24;13.13;;;9.60;;
18532;SDS011;9396;51.510;11.934;2023-03-19T02:41:58;14.03;;;9.07;;
18532;SDS011;9396;51.510;11.934;2023-03-19T02:44:26;17.70;;;9.50;;
18532;SDS011;9396;51.510;11.934;2023-03-19T02:46:52;14.93;;;8.73;;
18532;SDS011;9396;51.510;11.934;2023-03-19T02:49:19;11.73;;;9.57;;
18532;SDS011;9396;51.510;11.934;2023-03-19T02:51:46;15.57;;;9.90;;
18532;SDS011;9396;51.510;11.934;2023-03-19T02:54:13;14.23;;;9.57;;
18532;SDS011;9396;51.510;11.934;2023-03-19T02:56:39;14.43;;;9.20;;
18532;SDS011;9396;51.510;11.934;2023-03-19T02:59:07;15.07;;;9.00;;
18532;SDS011;9396;51.510;11.934;2023-03-19T03:01:34;16.40;;;9.93;;
18532;SDS011;9396;51.510;11.934;2023-03-19T03:04:01;13.10;;;9.47;;
18532;SDS011;9396;51.510;11.934;2023-03-19T03:06:29;16.27;;;9.53;;
18532;SDS011;9396;51.510;11.934;2023-03-19T03:08:56;12.40;;;9.30;;
18532;SDS011;9396;51.510;11.934;2023-03-19T03:11:23;17.00;;;10.70;;
18532;SDS011;9396;51.510;11.934;2023-03-19T03:13:49;14.77;;;9.27;;
18532;SDS011;9396;51.510;11.934;2023-03-19T03:16:17;12.83;;;9.53;;
18532;SDS011;9396;51.510;11.934;2023-03-19T03:18:44;14.37;;;9.67;;
18532;SDS011;9396;51.510;11.934;2023-03-19T03:21:10;13.30;;;8.97;;
18532;SDS011;9396;51.510;11.934;2023-03-19T03:23:37;13.97;;;9.23;;
18532;SDS011;9396;51.510;11.934;2023-03-19T03:26:04;12.40;;;9.47;;
18532;SDS011;9396;51.510;11.934;2023-03-19T03:28:32;14.73;;;9.30;;
18532;SDS011;9396;51.510;11.934;2023-03-19T03:30:59;12.70;;;8.97;;
18532;SDS011;9396;51.510;11.934;2023-03-19T03:33:28;14.00;;;9.33;;
18532;SDS011;9396;51.510;11.934;2023-03-19T03:35:55;14.83;;;9.13;;
18532;SDS011;9396;51.510;11.934;2023-03-19T03:38:21;14.20;;;8.90;;
18532;SDS011;9396;51.510;11.934;2023-03-19T03:40:48;13.10;;;9.40;;
18532;SDS011;9396;51.510;11.934;2023-03-19T03:43:16;15.40;;;9.67;;
18532;SDS011;9396;51.510;11.934;2023-03-19T03:45:43;17.00;;;10.10;;
18532;SDS011;9396;51.510;11.934;2023-03-19T03:48:10;15.47;;;10.33;;
18532;SDS011;9396;51.510;11.934;2023-03-19T03:50:38;16.83;;;8.60;;
18532;SDS011;9396;51.510;11.934;2023-03-19T03:53:05;13.57;;;9.50;;
18532;SDS011;9396;51.510;11.934;2023-03-19T03:55:32;13.40;;;8.93;;
18532;SDS011;9396;51.510;11.934;2023-03-19T03:57:59;14.23;;;9.03;;
18532;SDS011;9396;51.510;11.934;2023-03-19T04:00:26;16.60;;;9.03;;
18532;SDS011;9396;51.510;11.934;2023-03-19T04:02:52;13.40;;;9.00;;
18532;SDS011;9396;51.510;11.934;2023-03-19T04:05:19;11.47;;;8.83;;
18532;SDS011;9396;51.510;11.934;2023-03-19T04:07:48;14.20;;;8.80;;
18532;SDS011;9396;51.510;11.934;2023-03-19T04:10:14;12.20;;;9.23;;
18532;SDS011;9396;51.510;11.934;2023-03-19T04:12:41;11.53;;;8.77;;
18532;SDS011;9396;51.510;11.934;2023-03-19T04:15:10;13.30;;;9.17;;
18532;SDS011;9396;51.510;11.934;2023-03-19T04:17:37;12.17;;;8.40;;
18532;SDS011;9396;51.510;11.934;2023-03-19T04:20:04;11.60;;;8.90;;
18532;SDS011;9396;51.510;11.934;2023-03-19T04:22:32;14.77;;;8.43;;
18532;SDS011;9396;51.510;11.934;2023-03-19T04:25:00;10.50;;;8.17;;
18532;SDS011;9396;51.510;11.934;2023-03-19T04:27:27;11.10;;;8.60;;
18532;SDS011;9396;51.510;11.934;2023-03-19T04:29:53;13.80;;;8.67;;
18532;SDS011;9396;51.510;11.934;2023-03-19T04:32:20;11.17;;;8.23;;
18532;SDS011;9396;51.510;11.934;2023-03-19T04:34:47;12.87;;;9.27;;
18532;SDS011;9396;51.510;11.934;2023-03-19T04:37:13;16.67;;;10.10;;
18532;SDS011;9396;51.510;11.934;2023-03-19T04:39:41;14.43;;;8.83;;
18532;SDS011;9396;51.510;11.934;2023-03-19T04:42:09;12.10;;;9.27;;
18532;SDS011;9396;51.510;11.934;2023-03-19T04:44:36;13.00;;;9.00;;
18532;SDS011;9396;51.510;11.934;2023-03-19T04:47:03;13.87;;;8.83;;
18532;SDS011;9396;51.510;11.934;2023-03-19T04:49:30;12.07;;;8.23;;
18532;SDS011;9396;51.510;11.934;2023-03-19T04:51:57;16.43;;;9.63;;
18532;SDS011;9396;51.510;11.934;2023-03-19T04:54:23;11.30;;;8.93;;
18532;SDS011;9396;51.510;11.934;2023-03-19T04:56:51;13.67;;;8.87;;
18532;SDS011;9396;51.510;11.934;2023-03-19T04:59:19;11.37;;;8.77;;
18532;SDS011;9396;51.510;11.934;2023-03-19T05:01:46;14.20;;;8.93;;
18532;SDS011;9396;51.510;11.934;2023-03-19T05:04:12;17.33;;;9.83;;
18532;SDS011;9396;51.510;11.934;2023-03-19T05:06:39;13.50;;;9.43;;
18532;SDS011;9396;51.510;11.934;2023-03-19T05:09:06;15.20;;;9.50;;
18532;SDS011;9396;51.510;11.934;2023-03-19T05:11:33;12.70;;;8.87;;
18532;SDS011;9396;51.510;11.934;2023-03-19T05:14:00;14.00;;;9.00;;
18532;SDS011;9396;51.510;11.934;2023-03-19T05:16:28;12.60;;;8.87;;
18532;SDS011;9396;51.510;11.934;2023-03-19T05:18:55;12.83;;;8.70;;
18532;SDS011;9396;51.510;11.934;2023-03-19T05:21:22;13.17;;;8.40;;
18532;SDS011;9396;51.510;11.934;2023-03-19T05:23:48;11.77;;;8.43;;
18532;SDS011;9396;51.510;11.934;2023-03-19T05:26:18;13.17;;;8.83;;
18532;SDS011;9396;51.510;11.934;2023-03-19T05:28:45;13.87;;;7.97;;
18532;SDS011;9396;51.510;11.934;2023-03-19T05:31:12;12.90;;;8.77;;
18532;SDS011;9396;51.510;11.934;2023-03-19T05:33:40;12.37;;;9.10;;
18532;SDS011;9396;51.510;11.934;2023-03-19T05:36:07;13.40;;;8.33;;
18532;SDS011;9396;51.510;11.934;2023-03-19T05:38:33;12.37;;;9.00;;
18532;SDS011;9396;51.510;11.934;2023-03-19T05:41:02;16.33;;;9.27;;
18532;SDS011;9396;51.510;11.934;2023-03-19T05:43:30;17.07;;;8.83;;
18532;SDS011;9396;51.510;11.934;2023-03-19T05:45:57;12.10;;;8.87;;
18532;SDS011;9396;51.510;11.934;2023-03-19T05:48:24;20.27;;;9.77;;
18532;SDS011;9396;51.510;11.934;2023-03-19T05:50:52;13.37;;;8.93;;
18532;SDS011;9396;51.510;11.934;2023-03-19T05:53:19;12.53;;;9.63;;
18532;SDS011;9396;51.510;11.934;2023-03-19T05:55:47;12.97;;;9.13;;
18532;SDS011;9396;51.510;11.934;2023-03-19T05:58:14;14.23;;;9.57;;
18532;SDS011;9396;51.510;11.934;2023-03-19T06:00:42;14.30;;;9.43;;
18532;SDS011;9396;51.510;11.934;2023-03-19T06:03:08;14.80;;;9.77;;
18532;SDS011;9396;51.510;11.934;2023-03-19T06:05:35;12.40;;;9.63;;
18532;SDS011;9396;51.510;11.934;2023-03-19T06:08:03;13.07;;;9.43;;
18532;SDS011;9396;51.510;11.934;2023-03-19T06:10:30;15.23;;;10.10;;
18532;SDS011;9396;51.510;11.934;2023-03-19T06:12:59;12.03;;;8.73;;
18532;SDS011;9396;51.510;11.934;2023-03-19T06:15:25;17.57;;;9.60;;
18532;SDS011;9396;51.510;11.934;2023-03-19T06:17:52;14.17;;;8.87;;
18532;SDS011;9396;51.510;11.934;2023-03-19T06:20:18;14.07;;;8.40;;
18532;SDS011;9396;51.510;11.934;2023-03-19T06:22:45;14.33;;;9.60;;
18532;SDS011;9396;51.510;11.934;2023-03-19T06:25:14;11.87;;;8.80;;
18532;SDS011;9396;51.510;11.934;2023-03-19T06:27:41;12.17;;;9.30;;
18532;SDS011;9396;51.510;11.934;2023-03-19T06:30:08;17.13;;;9.00;;
18532;SDS011;9396;51.510;11.934;2023-03-19T06:32:36;15.57;;;9.33;;
18532;SDS011;9396;51.510;11.934;2023-03-19T06:35:03;13.37;;;9.23;;
18532;SDS011;9396;51.510;11.934;2023-03-19T06:37:30;11.57;;;9.30;;
18532;SDS011;9396;51.510;11.934;2023-03-19T06:39:57;14.33;;;8.90;;
18532;SDS011;9396;51.510;11.934;2023-03-19T06:42:25;12.10;;;9.97;;
18532;SDS011;9396;51.510;11.934;2023-03-19T06:44:51;13.37;;;9.30;;
18532;SDS011;9396;51.510;11.934;2023-03-19T06:47:18;13.57;;;9.27;;
18532;SDS011;9396;51.510;11.934;2023-03-19T06:49:45;15.77;;;9.60;;
18532;SDS011;9396;51.510;11.934;2023-03-19T06:52:11;14.67;;;10.20;;
18532;SDS011;9396;51.510;11.934;2023-03-19T06:54:38;14.80;;;9.40;;
18532;SDS011;9396;51.510;11.934;2023-03-19T06:57:05;13.30;;;9.17;;
18532;SDS011;9396;51.510;11.934;2023-03-19T06:59:33;13.30;;;9.17;;
18532;SDS011;9396;51.510;11.934;2023-03-19T07:02:00;14.00;;;9.00;;
18532;SDS011;9396;51.510;11.934;2023-03-19T07:04:27;11.87;;;9.30;;
18532;SDS011;9396;51.510;11.934;2023-03-19T07:06:54;13.70;;;8.70;;
18532;SDS011;9396;51.510;11.934;2023-03-19T07:09:21;12.07;;;8.80;;
18532;SDS011;9396;51.510;11.934;2023-03-19T07:11:47;12.53;;;9.57;;
18532;SDS011;9396;51.510;11.934;2023-03-19T07:14:14;12.53;;;9.33;;
18532;SDS011;9396;51.510;11.934;2023-03-19T07:16:42;12.40;;;9.33;;
18532;SDS011;9396;51.510;11.934;2023-03-19T07:19:09;14.07;;;9.57;;
18532;SDS011;9396;51.510;11.934;2023-03-19T07:21:35;11.33;;;9.67;;
18532;SDS011;9396;51.510;11.934;2023-03-19T07:24:02;17.07;;;9.30;;
18532;SDS011;9396;51.510;11.934;2023-03-19T07:26:29;11.20;;;8.90;;
18532;SDS011;9396;51.510;11.934;2023-03-19T07:28:56;13.17;;;9.00;;
18532;SDS011;9396;51.510;11.934;2023-03-19T07:31:23;13.53;;;9.27;;
18532;SDS011;9396;51.510;11.934;2023-03-19T07:33:51;14.80;;;9.43;;
18532;SDS011;9396;51.510;11.934;2023-03-19T07:36:17;21.17;;;9.87;;
18532;SDS011;9396;51.510;11.934;2023-03-19T07:38:45;12.13;;;8.67;;
18532;SDS011;9396;51.510;11.934;2023-03-19T07:41:11;11.60;;;8.47;;
18532;SDS011;9396;51.510;11.934;2023-03-19T07:43:38;14.63;;;9.50;;
18532;SDS011;9396;51.510;11.934;2023-03-19T07:46:05;15.53;;;8.43;;
18532;SDS011;9396;51.510;11.934;2023-03-19T07:48:31;12.47;;;8.30;;
18532;SDS011;9396;51.510;11.934;2023-03-19T07:51:00;15.37;;;9.17;;
18532;SDS011;9396;51.510;11.934;2023-03-19T07:53:26;12.50;;;7.87;;
18532;SDS011;9396;51.510;11.934;2023-03-19T07:55:53;11.07;;;7.53;;
18532;SDS011;9396;51.510;11.934;2023-03-19T07:58:19;12.37;;;6.97;;
18532;SDS011;9396;51.510;11.934;2023-03-19T08:00:46;10.30;;;7.10;;
18532;SDS011;9396;51.510;11.934;2023-03-19T08:03:13;11.67;;;7.27;;
18532;SDS011;9396;51.510;11.934;2023-03-19T08:05:40;12.20;;;7.37;;
18532;SDS011;9396;51.510;11.934;2023-03-19T08:08:08;11.77;;;7.33;;
18532;SDS011;9396;51.510;11.934;2023-03-19T08:10:34;14.57;;;7.00;;
18532;SDS011;9396;51.510;11.934;2023-03-19T08:13:01;9.90;;;7.00;;
18532;SDS011;9396;51.510;11.934;2023-03-19T08:15:29;12.73;;;6.90;;
18532;SDS011;9396;51.510;11.934;2023-03-19T08:17:58;8.63;;;6.80;;
18532;SDS011;9396;51.510;11.934;2023-03-19T08:20:26;10.13;;;6.17;;
18532;SDS011;9396;51.510;11.934;2023-03-19T08:22:52;9.63;;;6.40;;
18532;SDS011;9396;51.510;11.934;2023-03-19T08:25:22;9.30;;;6.23;;
18532;SDS011;9396;51.510;11.934;2023-03-19T08:27:49;10.87;;;8.17;;
18532;SDS011;9396;51.510;11.934;2023-03-19T08:30:16;11.67;;;8.07;;
18532;SDS011;9396;51.510;11.934;2023-03-19T08:32:42;10.33;;;7.90;;
18532;SDS011;9396;51.510;11.934;2023-03-19T08:35:10;13.03;;;7.53;;
18532;SDS011;9396;51.510;11.934;2023-03-19T08:37:36;15.50;;;8.00;;
18532;SDS011;9396;51.510;11.934;2023-03-19T08:40:03;13.60;;;8.40;;
18532;SDS011;9396;51.510;11.934;2023-03-19T08:42:32;11.10;;;6.87;;
18532;SDS011;9396;51.510;11.934;2023-03-19T08:44:59;6.53;;;5.40;;
18532;SDS011;9396;51.510;11.934;2023-03-19T08:47:25;11.47;;;5.67;;
18532;SDS011;9396;51.510;11.934;2023-03-19T08:49:52;8.33;;;5.87;;
18532;SDS011;9396;51.510;11.934;2023-03-19T08:52:19;7.43;;;5.33;;
18532;SDS011;9396;51.510;11.934;2023-03-19T08:54:46;8.77;;;5.60;;
18532;SDS011;9396;51.510;11.934;2023-03-19T08:57:13;7.70;;;5.00;;
18532;SDS011;9396;51.510;11.934;2023-03-19T08:59:41;8.67;;;6.03;;
18532;SDS011;9396;51.510;11.934;2023-03-19T09:02:08;8.13;;;5.43;;
18532;SDS011;9396;51.510;11.934;2023-03-19T09:04:35;6.70;;;4.67;;
18532;SDS011;9396;51.510;11.934;2023-03-19T09:07:03;8.90;;;4.80;;
18532;SDS011;9396;51.510;11.934;2023-03-19T09:09:30;8.77;;;4.80;;
18532;SDS011;9396;51.510;11.934;2023-03-19T09:11:57;9.03;;;4.90;;
18532;SDS011;9396;51.510;11.934;2023-03-19T09:14:23;8.30;;;4.83;;
18532;SDS011;9396;51.510;11.934;2023-03-19T09:16:51;10.60;;;5.17;;
18532;SDS011;9396;51.510;11.934;2023-03-19T09:19:19;9.63;;;4.87;;
18532;SDS011;9396;51.510;11.934;2023-03-19T09:21:47;7.97;;;4.23;;
18532;SDS011;9396;51.510;11.934;2023-03-19T09:24:14;6.77;;;4.53;;
18532;SDS011;9396;51.510;11.934;2023-03-19T09:26:41;9.17;;;5.00;;
18532;SDS011;9396;51.510;11.934;2023-03-19T09:29:07;6.47;;;4.50;;
18532;SDS011;9396;51.510;11.934;2023-03-19T09:31:34;9.47;;;4.67;;
18532;SDS011;9396;51.510;11.934;2023-03-19T09:34:03;8.17;;;4.80;;
18532;SDS011;9396;51.510;11.934;2023-03-19T09:36:31;7.63;;;4.87;;
18532;SDS011;9396;51.510;11.934;2023-03-19T09:38:58;6.93;;;4.70;;
18532;SDS011;9396;51.510;11.934;2023-03-19T09:41:26;7.07;;;4.53;;
18532;SDS011;9396;51.510;11.934;2023-03-19T09:44:00;10.13;;;4.70;;
18532;SDS011;9396;51.510;11.934;2023-03-19T09:46:31;7.70;;;4.90;;
18532;SDS011;9396;51.510;11.934;2023-03-19T09:49:06;7.43;;;4.20;;
18532;SDS011;9396;51.510;11.934;2023-03-19T09:51:47;9.30;;;4.87;;
18532;SDS011;9396;51.510;11.934;2023-03-19T09:54:30;8.50;;;4.53;;
18532;SDS011;9396;51.510;11.934;2023-03-19T09:56:58;7.87;;;4.37;;
18532;SDS011;9396;51.510;11.934;2023-03-19T09:59:26;9.80;;;4.30;;
18532;SDS011;9396;51.510;11.934;2023-03-19T10:01:56;8.83;;;4.47;;
18532;SDS011;9396;51.510;11.934;2023-03-19T10:04:38;6.40;;;3.90;;
18532;SDS011;9396;51.510;11.934;2023-03-19T10:07:12;6.33;;;4.13;;
18532;SDS011;9396;51.510;11.934;2023-03-19T10:09:53;5.90;;;4.20;;
18532;SDS011;9396;51.510;11.934;2023-03-19T10:12:33;8.60;;;4.33;;
18532;SDS011;9396;51.510;11.934;2023-03-19T10:15:18;9.70;;;4.20;;
18532;SDS011;9396;51.510;11.934;2023-03-19T10:17:53;6.77;;;3.97;;
18532;SDS011;9396;51.510;11.934;2023-03-19T10:23:21;9.17;;;3.80;;
18532;SDS011;9396;51.510;11.934;2023-03-19T10:25:58;9.93;;;4.80;;
18532;SDS011;9396;51.510;11.934;2023-03-19T10:28:27;7.10;;;4.27;;
18532;SDS011;9396;51.510;11.934;2023-03-19T10:30:57;9.93;;;4.30;;
18532;SDS011;9396;51.510;11.934;2023-03-19T10:33:34;7.00;;;4.17;;
18532;SDS011;9396;51.510;11.934;2023-03-19T10:36:10;5.93;;;4.63;;
18532;SDS011;9396;51.510;11.934;2023-03-19T10:38:39;10.37;;;5.23;;
18532;SDS011;9396;51.510;11.934;2023-03-19T10:41:18;9.23;;;4.43;;
18532;SDS011;9396;51.510;11.934;2023-03-19T10:43:53;8.00;;;5.37;;
18532;SDS011;9396;51.510;11.934;2023-03-19T10:46:23;8.37;;;4.77;;
18532;SDS011;9396;51.510;11.934;2023-03-19T10:48:50;7.07;;;4.50;;
18532;SDS011;9396;51.510;11.934;2023-03-19T10:51:19;9.13;;;4.60;;
18532;SDS011;9396;51.510;11.934;2023-03-19T10:53:50;8.63;;;4.70;;
18532;SDS011;9396;51.510;11.934;2023-03-19T10:56:18;7.77;;;4.77;;
18532;SDS011;9396;51.510;11.934;2023-03-19T10:58:57;10.30;;;5.07;;
18532;SDS011;9396;51.510;11.934;2023-03-19T11:01:26;7.13;;;5.23;;
18532;SDS011;9396;51.510;11.934;2023-03-19T11:03:58;12.23;;;5.27;;
18532;SDS011;9396;51.510;11.934;2023-03-19T11:06:29;8.33;;;5.60;;
18532;SDS011;9396;51.510;11.934;2023-03-19T11:08:58;11.23;;;5.17;;
18532;SDS011;9396;51.510;11.934;2023-03-19T11:11:31;8.77;;;4.63;;
18532;SDS011;9396;51.510;11.934;2023-03-19T11:14:04;7.00;;;4.27;;
18532;SDS011;9396;51.510;11.934;2023-03-19T11:16:45;7.20;;;5.10;;
18532;SDS011;9396;51.510;11.934;2023-03-19T11:19:15;12.33;;;4.87;;
18532;SDS011;9396;51.510;11.934;2023-03-19T11:21:53;8.27;;;4.57;;
18532;SDS011;9396;51.510;11.934;2023-03-19T11:24:26;10.97;;;4.47;;
18532;SDS011;9396;51.510;11.934;2023-03-19T11:26:56;6.13;;;4.03;;
18532;SDS011;9396;51.510;11.934;2023-03-19T11:29:25;11.60;;;4.93;;
18532;SDS011;9396;51.510;11.934;2023-03-19T11:31:53;7.00;;;4.33;;
18532;SDS011;9396;51.510;11.934;2023-03-19T11:34:32;5.20;;;3.47;;
18532;SDS011;9396;51.510;11.934;2023-03-19T11:37:13;8.40;;;4.63;;
18532;SDS011;9396;51.510;11.934;2023-03-19T11:39:48;8.17;;;4.70;;
18532;SDS011;9396;51.510;11.934;2023-03-19T11:42:40;6.57;;;3.90;;
18532;SDS011;9396;51.510;11.934;2023-03-19T11:45:17;10.87;;;3.50;;
18532;SDS011;9396;51.510;11.934;2023-03-19T11:47:55;5.17;;;3.80;;
18532;SDS011;9396;51.510;11.934;2023-03-19T11:50:32;6.67;;;4.10;;
18532;SDS011;9396;51.510;11.934;2023-03-19T11:53:13;9.13;;;4.67;;
18532;SDS011;9396;51.510;11.934;2023-03-19T11:55:49;5.83;;;3.47;;
18532;SDS011;9396;51.510;11.934;2023-03-19T11:58:26;7.73;;;3.73;;
18532;SDS011;9396;51.510;11.934;2023-03-19T12:01:08;5.93;;;3.67;;
18532;SDS011;9396;51.510;11.934;2023-03-19T12:03:51;3.93;;;3.10;;
18532;SDS011;9396;51.510;11.934;2023-03-19T12:06:32;4.30;;;2.97;;
18532;SDS011;9396;51.510;11.934;2023-03-19T12:09:12;6.87;;;3.67;;
18532;SDS011;9396;51.510;11.934;2023-03-19T12:11:50;8.27;;;3.37;;
18532;SDS011;9396;51.510;11.934;2023-03-19T12:14:22;4.67;;;3.17;;
18532;SDS011;9396;51.510;11.934;2023-03-19T12:16:58;4.17;;;2.80;;
18532;SDS011;9396;51.510;11.934;2023-03-19T12:19:44;6.87;;;2.97;;
18532;SDS011;9396;51.510;11.934;2023-03-19T12:22:38;5.73;;;3.40;;
18532;SDS011;9396;51.510;11.934;2023-03-19T12:25:23;5.93;;;3.80;;
18532;SDS011;9396;51.510;11.934;2023-03-19T12:28:00;5.80;;;3.40;;
18532;SDS011;9396;51.510;11.934;2023-03-19T12:30:33;7.53;;;3.50;;
18532;SDS011;9396;51.510;11.934;2023-03-19T12:33:12;8.37;;;3.53;;
18532;SDS011;9396;51.510;11.934;2023-03-19T12:35:52;4.43;;;2.83;;
18532;SDS011;9396;51.510;11.934;2023-03-19T12:38:22;9.80;;;3.90;;
18532;SDS011;9396;51.510;11.934;2023-03-19T12:40:55;6.03;;;3.30;;
18532;SDS011;9396;51.510;11.934;2023-03-19T12:43:27;6.47;;;3.20;;
18532;SDS011;9396;51.510;11.934;2023-03-19T12:46:01;6.50;;;4.03;;
18532;SDS011;9396;51.510;11.934;2023-03-19T12:48:34;6.43;;;3.43;;
18532;SDS011;9396;51.510;11.934;2023-03-19T12:51:07;8.17;;;3.63;;
18532;SDS011;9396;51.510;11.934;2023-03-19T12:53:40;3.77;;;2.60;;
18532;SDS011;9396;51.510;11.934;2023-03-19T12:56:14;5.80;;;2.90;;
18532;SDS011;9396;51.510;11.934;2023-03-19T12:58:49;4.20;;;3.00;;
18532;SDS011;9396;51.510;11.934;2023-03-19T13:01:20;5.10;;;3.03;;
18532;SDS011;9396;51.510;11.934;2023-03-19T13:03:53;7.47;;;3.00;;
18532;SDS011;9396;51.510;11.934;2023-03-19T13:06:25;4.33;;;2.67;;
18532;SDS011;9396;51.510;11.934;2023-03-19T13:08:58;4.27;;;2.33;;
18532;SDS011;9396;51.510;11.934;2023-03-19T13:11:35;3.87;;;2.30;;
18532;SDS011;9396;51.510;11.934;2023-03-19T13:14:13;6.43;;;2.80;;
18532;SDS011;9396;51.510;11.934;2023-03-19T13:16:46;4.13;;;2.40;;
18532;SDS011;9396;51.510;11.934;2023-03-19T13:19:18;5.10;;;2.73;;
18532;SDS011;9396;51.510;11.934;2023-03-19T13:21:50;4.60;;;2.43;;
18532;SDS011;9396;51.510;11.934;2023-03-19T13:24:20;5.27;;;2.43;;
18532;SDS011;9396;51.510;11.934;2023-03-19T13:26:52;6.57;;;2.70;;
18532;SDS011;9396;51.510;11.934;2023-03-19T13:29:21;7.57;;;2.90;;
18532;SDS011;9396;51.510;11.934;2023-03-19T13:31:49;4.60;;;2.77;;
18532;SDS011;9396;51.510;11.934;2023-03-19T13:34:18;4.87;;;2.67;;
18532;SDS011;9396;51.510;11.934;2023-03-19T13:36:47;5.40;;;2.37;;
18532;SDS011;9396;51.510;11.934;2023-03-19T13:39:19;3.33;;;2.37;;
18532;SDS011;9396;51.510;11.934;2023-03-19T13:42:07;4.33;;;2.37;;
18532;SDS011;9396;51.510;11.934;2023-03-19T13:44:40;3.80;;;2.13;;
18532;SDS011;9396;51.510;11.934;2023-03-19T13:53:09;3.70;;;1.90;;
18532;SDS011;9396;51.510;11.934;2023-03-19T13:55:47;3.33;;;2.13;;
18532;SDS011;9396;51.510;11.934;2023-03-19T13:58:20;4.13;;;2.20;;
18532;SDS011;9396;51.510;11.934;2023-03-19T14:01:05;4.80;;;2.10;;
18532;SDS011;9396;51.510;11.934;2023-03-19T14:03:35;2.90;;;2.03;;
18532;SDS011;9396;51.510;11.934;2023-03-19T14:08:56;5.67;;;2.20;;
18532;SDS011;9396;51.510;11.934;2023-03-19T14:11:24;4.63;;;2.20;;
18532;SDS011;9396;51.510;11.934;2023-03-19T14:13:58;4.50;;;2.03;;
18532;SDS011;9396;51.510;11.934;2023-03-19T14:16:29;6.90;;;1.90;;
18532;SDS011;9396;51.510;11.934;2023-03-19T14:18:59;3.37;;;1.90;;
18532;SDS011;9396;51.510;11.934;2023-03-19T14:21:31;4.10;;;1.83;;
18532;SDS011;9396;51.510;11.934;2023-03-19T14:26:53;3.67;;;1.97;;
18532;SDS011;9396;51.510;11.934;2023-03-19T14:29:23;3.93;;;1.87;;
18532;SDS011;9396;51.510;11.934;2023-03-19T14:31:51;2.40;;;1.50;;
18532;SDS011;9396;51.510;11.934;2023-03-19T14:34:20;1.67;;;1.57;;
18532;SDS011;9396;51.510;11.934;2023-03-19T14:36:52;2.17;;;1.50;;
18532;SDS011;9396;51.510;11.934;2023-03-19T14:39:23;1.83;;;1.40;;
18532;SDS011;9396;51.510;11.934;2023-03-19T14:41:55;5.10;;;1.43;;
18532;SDS011;9396;51.510;11.934;2023-03-19T14:44:33;3.27;;;1.60;;
18532;SDS011;9396;51.510;11.934;2023-03-19T14:47:19;2.40;;;1.40;;
18532;SDS011;9396;51.510;11.934;2023-03-19T14:49:53;2.00;;;1.33;;
18532;SDS011;9396;51.510;11.934;2023-03-19T14:52:31;2.67;;;1.73;;
18532;SDS011;9396;51.510;11.934;2023-03-19T14:55:07;5.23;;;1.60;;
18532;SDS011;9396;51.510;11.934;2023-03-19T14:57:36;3.97;;;1.70;;
18532;SDS011;9396;51.510;11.934;2023-03-19T15:00:06;2.27;;;1.60;;
18532;SDS011;9396;51.510;11.934;2023-03-19T15:02:42;2.60;;;1.67;;
18532;SDS011;9396;51.510;11.934;2023-03-19T15:05:13;2.13;;;1.53;;
18532;SDS011;9396;51.510;11.934;2023-03-19T15:07:45;2.13;;;1.50;;